Time;durP1;ratioP1;P1;durP2;ratioP2;P2;SDS_P1;SDS_P2;PMS_P1;PMS_P2;Temp;Humidity;BMP_temperature;BMP_pressure;BME280_temperature;BME280_humidity;BME280_pressure;Samples;Min_cycle;Max_cycle;Signal;HPM_P1;HPM_P2
2021/08/30 00:01:01;;;;;;;13.90;12.00;;;15.20;99.90;;;;;;5049664;28;20025;-50
2021/08/30 00:03:27;;;;;;;16.17;12.88;;;15.20;99.90;;;;;;5046353;28;20029;-48
2021/08/30 00:05:53;;;;;;;15.52;11.75;;;15.20;99.90;;;;;;5048381;28;20483;-51
2021/08/30 00:08:19;;;;;;;14.57;12.23;;;15.20;99.90;;;;;;5047006;28;20045;-47
2021/08/30 00:10:44;;;;;;;14.02;11.40;;;15.20;99.90;;;;;;5046064;28;20031;-50
2021/08/30 00:13:10;;;;;;;15.07;11.68;;;15.20;99.90;;;;;;5048361;28;20391;-49
2021/08/30 00:15:36;;;;;;;17.00;12.52;;;15.20;99.90;;;;;;5043005;28;20395;-48
2021/08/30 00:18:01;;;;;;;12.32;11.00;;;15.20;99.90;;;;;;5047931;28;20025;-51
2021/08/30 00:20:27;;;;;;;16.00;13.05;;;15.20;99.90;;;;;;5045785;28;20476;-49
2021/08/30 00:22:52;;;;;;;18.05;12.90;;;15.20;99.90;;;;;;5048830;28;20025;-51
2021/08/30 00:25:18;;;;;;;16.27;12.75;;;15.20;99.90;;;;;;5046519;28;20029;-48
2021/08/30 00:27:44;;;;;;;17.23;13.23;;;15.20;99.90;;;;;;5046061;28;20045;-50
2021/08/30 00:30:10;;;;;;;18.63;13.45;;;15.10;99.90;;;;;;5045806;28;20021;-48
2021/08/30 00:32:36;;;;;;;14.32;12.77;;;15.20;99.90;;;;;;5043434;28;20024;-48
2021/08/30 00:35:02;;;;;;;21.42;13.18;;;15.20;99.90;;;;;;5042118;28;20024;-50
2021/08/30 00:37:28;;;;;;;15.73;13.35;;;15.20;99.90;;;;;;5046419;28;20043;-48
2021/08/30 00:39:53;;;;;;;16.75;13.57;;;15.20;99.90;;;;;;5043741;28;20155;-48
2021/08/30 00:42:19;;;;;;;15.63;12.13;;;15.20;99.90;;;;;;5046615;28;20029;-46
2021/08/30 00:44:44;;;;;;;14.52;12.07;;;15.20;99.90;;;;;;5046957;28;20013;-50
2021/08/30 00:47:10;;;;;;;16.25;12.98;;;15.20;99.90;;;;;;5044277;28;20025;-53
2021/08/30 00:49:36;;;;;;;16.40;13.52;;;15.20;99.90;;;;;;5036745;28;20053;-51
2021/08/30 00:52:02;;;;;;;14.10;12.15;;;15.20;99.90;;;;;;5039496;28;20183;-49
2021/08/30 00:54:29;;;;;;;19.75;13.48;;;15.20;99.90;;;;;;5046882;28;20035;-51
2021/08/30 00:56:55;;;;;;;17.38;13.25;;;15.20;99.90;;;;;;5043224;28;20017;-47
2021/08/30 00:59:21;;;;;;;14.82;13.30;;;15.20;99.90;;;;;;5022747;28;20060;-48
2021/08/30 01:01:46;;;;;;;15.05;12.60;;;15.20;99.90;;;;;;5046157;28;20045;-48
2021/08/30 01:04:13;;;;;;;18.75;13.10;;;15.10;99.90;;;;;;5042387;28;20074;-49
2021/08/30 01:06:39;;;;;;;17.20;12.05;;;15.10;99.90;;;;;;5047745;28;20125;-52
2021/08/30 01:09:29;;;;;;;18.33;14.85;;;15.10;99.90;;;;;;5043955;28;20112;-48
2021/08/30 01:12:08;;;;;;;16.08;12.38;;;15.10;99.90;;;;;;5046667;28;20024;-48
2021/08/30 01:14:41;;;;;;;17.60;13.15;;;15.10;99.90;;;;;;5035723;28;20025;-52
2021/08/30 01:17:07;;;;;;;15.48;12.48;;;15.10;99.90;;;;;;5045069;28;20495;-49
2021/08/30 01:19:35;;;;;;;14.27;11.85;;;15.20;99.90;;;;;;5045144;28;20037;-47
2021/08/30 01:22:04;;;;;;;16.27;12.95;;;15.20;99.90;;;;;;5043774;28;20013;-47
2021/08/30 01:24:31;;;;;;;16.83;12.40;;;15.20;99.90;;;;;;5044820;28;20387;-49
2021/08/30 01:26:59;;;;;;;17.50;12.52;;;15.10;99.90;;;;;;5048604;28;20048;-47
2021/08/30 01:29:46;;;;;;;20.90;12.27;;;15.10;99.90;;;;;;5041631;28;20052;-50
2021/08/30 01:32:26;;;;;;;17.63;13.07;;;15.10;99.90;;;;;;5047308;28;20364;-52
2021/08/30 01:34:53;;;;;;;14.52;12.25;;;15.20;99.90;;;;;;5043315;28;20043;-49
2021/08/30 01:37:19;;;;;;;13.93;11.70;;;15.20;99.90;;;;;;5045904;28;20082;-49
2021/08/30 01:39:46;;;;;;;16.45;12.63;;;15.20;99.90;;;;;;5043075;28;20029;-48
2021/08/30 01:42:11;;;;;;;17.48;14.25;;;15.20;99.90;;;;;;5045326;28;20021;-47
2021/08/30 01:44:37;;;;;;;18.23;13.27;;;15.20;99.90;;;;;;5047244;28;20021;-47
2021/08/30 01:47:04;;;;;;;16.40;13.50;;;15.20;99.90;;;;;;5043991;28;20024;-47
2021/08/30 01:49:30;;;;;;;16.55;13.35;;;15.20;99.90;;;;;;5047148;28;20021;-51
2021/08/30 01:51:57;;;;;;;16.67;13.02;;;15.20;99.90;;;;;;5042751;28;20487;-50
2021/08/30 01:54:24;;;;;;;17.15;13.45;;;15.20;99.90;;;;;;5046012;28;20151;-47
2021/08/30 01:56:52;;;;;;;15.85;12.55;;;15.30;99.90;;;;;;5042733;28;20022;-53
2021/08/30 02:02:08;;;;;;;16.27;12.38;;;15.30;99.90;;;;;;5047543;28;20062;-47
2021/08/30 02:04:35;;;;;;;13.90;11.57;;;15.30;99.90;;;;;;5043816;28;20033;-47
2021/08/30 02:07:05;;;;;;;14.25;11.73;;;15.30;99.90;;;;;;5046260;28;20029;-52
2021/08/30 02:09:31;;;;;;;15.88;13.02;;;15.30;99.90;;;;;;5043470;28;20021;-49
2021/08/30 02:11:57;;;;;;;14.40;12.10;;;15.30;99.90;;;;;;5043372;28;20514;-46
2021/08/30 02:14:23;;;;;;;14.20;12.50;;;15.30;99.90;;;;;;5046808;28;20079;-49
2021/08/30 02:16:50;;;;;;;17.35;12.20;;;15.30;99.90;;;;;;5049197;28;20028;-50
2021/08/30 02:19:34;;;;;;;16.23;12.00;;;15.30;99.90;;;;;;5051535;28;20395;-50
2021/08/30 02:22:22;;;;;;;16.13;12.10;;;15.30;99.90;;;;;;5047512;28;20357;-51
2021/08/30 02:24:56;;;;;;;14.45;12.00;;;15.30;99.90;;;;;;5045355;28;20017;-49
2021/08/30 02:27:39;;;;;;;13.52;11.13;;;15.30;99.90;;;;;;5035457;28;20195;-47
2021/08/30 02:30:09;;;;;;;24.85;12.82;;;15.30;99.90;;;;;;5047983;28;20044;-48
2021/08/30 02:32:36;;;;;;;18.15;12.73;;;15.30;99.90;;;;;;5043209;28;20441;-47
2021/08/30 02:35:06;;;;;;;13.98;11.82;;;15.30;99.90;;;;;;5039798;28;20518;-49
2021/08/30 02:37:35;;;;;;;13.88;12.18;;;15.30;99.90;;;;;;5043062;28;20454;-49
2021/08/30 02:40:03;;;;;;;16.30;12.35;;;15.30;99.90;;;;;;5042462;28;20025;-49
2021/08/30 02:42:32;;;;;;;15.45;11.02;;;15.30;99.90;;;;;;5038516;28;20057;-48
2021/08/30 02:44:59;;;;;;;15.90;12.05;;;15.30;99.90;;;;;;5036928;28;20031;-48
2021/08/30 02:47:25;;;;;;;17.65;12.63;;;15.30;99.90;;;;;;5042484;28;20021;-51
2021/08/30 02:49:53;;;;;;;21.58;13.50;;;15.30;99.90;;;;;;5041087;28;20033;-52
2021/08/30 02:52:20;;;;;;;19.55;12.88;;;15.30;99.90;;;;;;5043032;28;20036;-51
2021/08/30 02:54:49;;;;;;;14.80;12.93;;;15.30;99.90;;;;;;5041467;28;20021;-53
2021/08/30 02:57:16;;;;;;;16.13;12.95;;;15.30;99.90;;;;;;5043222;28;20029;-52
2021/08/30 02:59:42;;;;;;;15.90;12.48;;;15.20;99.90;;;;;;5044318;28;20029;-49
2021/08/30 03:02:09;;;;;;;16.60;13.43;;;15.20;99.90;;;;;;5041101;28;20029;-50
2021/08/30 03:04:35;;;;;;;15.05;13.32;;;15.20;99.90;;;;;;5043352;28;20013;-53
2021/08/30 03:07:02;;;;;;;19.00;14.60;;;15.20;99.90;;;;;;5040884;28;20018;-49
2021/08/30 03:09:28;;;;;;;17.63;12.65;;;15.20;99.90;;;;;;5042978;28;20021;-52
2021/08/30 03:11:54;;;;;;;21.10;13.60;;;15.10;99.90;;;;;;5041920;28;20030;-49
2021/08/30 03:14:25;;;;;;;16.50;12.38;;;15.10;99.90;;;;;;5029090;28;20526;-47
2021/08/30 03:16:58;;;;;;;18.92;13.32;;;15.10;99.90;;;;;;5041341;28;20554;-50
2021/08/30 03:19:25;;;;;;;15.82;13.20;;;15.10;99.90;;;;;;5031359;28;20013;-49
2021/08/30 03:21:51;;;;;;;17.65;14.05;;;15.10;99.90;;;;;;5040958;28;20025;-50
2021/08/30 03:24:21;;;;;;;18.38;13.93;;;15.10;99.90;;;;;;5040301;28;20406;-51
2021/08/30 03:26:49;;;;;;;20.42;15.93;;;15.10;99.90;;;;;;5042763;28;20052;-50
2021/08/30 03:29:17;;;;;;;19.77;14.75;;;15.10;99.90;;;;;;5041527;28;20018;-48
2021/08/30 03:31:44;;;;;;;19.27;14.65;;;15.10;99.90;;;;;;5042792;28;20078;-49
2021/08/30 03:34:10;;;;;;;21.75;14.35;;;15.10;99.90;;;;;;5040336;28;20456;-49
2021/08/30 03:36:37;;;;;;;22.67;16.05;;;15.10;99.90;;;;;;5041857;28;20028;-49
2021/08/30 03:39:03;;;;;;;18.08;14.43;;;15.10;99.90;;;;;;5040736;28;20059;-49
2021/08/30 03:41:30;;;;;;;16.70;13.85;;;15.10;99.90;;;;;;5042295;28;20542;-47
2021/08/30 03:43:57;;;;;;;18.92;15.32;;;15.20;99.90;;;;;;5041864;28;20081;-50
2021/08/30 03:46:23;;;;;;;17.55;14.23;;;15.20;99.90;;;;;;5032494;28;20471;-47
2021/08/30 03:48:49;;;;;;;18.95;14.40;;;15.20;99.90;;;;;;5042485;28;20032;-47
2021/08/30 03:51:16;;;;;;;18.73;14.63;;;15.20;99.90;;;;;;5040514;28;20106;-46
2021/08/30 03:53:43;;;;;;;21.10;16.17;;;15.20;99.90;;;;;;5041728;28;20017;-48
2021/08/30 03:56:09;;;;;;;17.83;14.93;;;15.20;99.90;;;;;;5041020;28;20032;-51
2021/08/30 03:58:37;;;;;;;25.35;16.00;;;15.20;99.90;;;;;;5042089;28;20017;-48
2021/08/30 04:01:06;;;;;;;20.13;14.48;;;15.20;99.90;;;;;;5040888;28;20013;-48
2021/08/30 04:03:39;;;;;;;21.83;14.38;;;15.20;99.90;;;;;;5041485;28;20005;-46
2021/08/30 04:06:10;;;;;;;25.30;14.73;;;15.20;99.90;;;;;;5039773;28;20027;-52
2021/08/30 04:08:37;;;;;;;22.38;15.05;;;15.20;99.90;;;;;;5043088;28;20028;-47
2021/08/30 04:11:04;;;;;;;16.27;14.32;;;15.20;99.90;;;;;;5040778;28;20525;-49
2021/08/30 04:13:31;;;;;;;15.50;13.55;;;15.20;99.90;;;;;;5042318;28;20025;-48
2021/08/30 04:15:56;;;;;;;19.38;14.48;;;15.20;99.90;;;;;;5040645;28;20029;-49
2021/08/30 04:18:22;;;;;;;19.13;14.68;;;15.20;99.90;;;;;;5038264;28;20029;-46
2021/08/30 04:20:47;;;;;;;16.90;13.93;;;15.20;99.90;;;;;;5043628;28;20096;-48
2021/08/30 04:23:13;;;;;;;21.30;14.95;;;15.20;99.90;;;;;;5038636;28;20035;-48
2021/08/30 04:25:39;;;;;;;19.80;14.48;;;15.20;99.90;;;;;;5042575;28;20063;-53
2021/08/30 04:28:04;;;;;;;17.50;14.82;;;15.20;99.90;;;;;;5035974;28;20025;-48
2021/08/30 04:30:30;;;;;;;15.93;13.15;;;15.20;99.90;;;;;;5042872;28;20641;-49
2021/08/30 04:32:56;;;;;;;20.80;14.65;;;15.20;99.90;;;;;;5041110;28;20025;-48
2021/08/30 04:35:22;;;;;;;17.50;14.02;;;15.20;99.90;;;;;;5036619;28;20022;-48
2021/08/30 04:37:49;;;;;;;19.23;15.13;;;15.20;99.90;;;;;;5042982;28;20029;-47
2021/08/30 04:40:15;;;;;;;23.67;14.70;;;15.10;99.90;;;;;;5038236;28;20424;-51
2021/08/30 04:42:41;;;;;;;25.55;15.25;;;15.20;99.90;;;;;;5037448;28;20049;-47
2021/08/30 04:45:07;;;;;;;16.52;13.98;;;15.20;99.90;;;;;;5038616;28;20049;-48
2021/08/30 04:47:33;;;;;;;20.88;16.10;;;15.20;99.90;;;;;;5041762;28;20496;-47
2021/08/30 04:50:00;;;;;;;19.35;15.05;;;15.10;99.90;;;;;;5038148;28;20025;-46
2021/08/30 04:52:25;;;;;;;19.23;14.80;;;15.10;99.90;;;;;;5043628;28;20017;-47
2021/08/30 04:54:51;;;;;;;18.88;14.93;;;15.10;99.90;;;;;;5036901;28;20021;-49
2021/08/30 04:57:17;;;;;;;21.08;14.90;;;15.10;99.90;;;;;;5045129;28;20029;-47
2021/08/30 04:59:42;;;;;;;19.00;14.43;;;15.10;99.90;;;;;;5037240;28;20018;-49
2021/08/30 05:02:08;;;;;;;19.88;14.32;;;15.10;99.90;;;;;;5039128;28;20026;-49
2021/08/30 05:04:34;;;;;;;17.88;14.77;;;15.10;99.90;;;;;;5039768;28;20067;-47
2021/08/30 05:07:00;;;;;;;18.00;14.80;;;15.10;99.90;;;;;;5037852;28;20017;-47
2021/08/30 05:09:26;;;;;;;19.50;15.45;;;15.10;99.90;;;;;;5043461;28;20033;-47
2021/08/30 05:11:51;;;;;;;21.35;14.80;;;15.10;99.90;;;;;;5036754;28;20108;-47
2021/08/30 05:14:17;;;;;;;20.27;15.77;;;15.10;99.90;;;;;;5044888;28;20115;-47
2021/08/30 05:16:42;;;;;;;20.42;15.35;;;15.10;99.90;;;;;;5036733;28;20026;-47
2021/08/30 05:19:08;;;;;;;22.13;15.75;;;15.10;99.90;;;;;;5038475;28;20053;-46
2021/08/30 05:21:34;;;;;;;20.25;15.20;;;15.00;99.90;;;;;;5040786;28;20101;-47
2021/08/30 05:24:00;;;;;;;18.90;14.38;;;15.00;99.90;;;;;;5037454;28;20028;-47
2021/08/30 05:26:26;;;;;;;22.85;16.05;;;14.90;99.90;;;;;;5042792;28;20037;-47
2021/08/30 05:28:52;;;;;;;24.30;15.15;;;15.00;99.90;;;;;;5033090;28;20499;-49
2021/08/30 05:31:17;;;;;;;18.98;14.93;;;15.00;99.90;;;;;;5043451;28;20487;-47
2021/08/30 05:33:43;;;;;;;18.58;15.32;;;15.00;99.90;;;;;;5036445;28;20424;-46
2021/08/30 05:36:09;;;;;;;21.65;15.45;;;14.90;99.90;;;;;;5037880;28;20071;-46
2021/08/30 05:38:34;;;;;;;18.40;14.57;;;15.00;99.90;;;;;;5040796;28;20018;-46
2021/08/30 05:41:00;;;;;;;20.75;14.93;;;15.00;99.90;;;;;;5037009;28;20040;-46
2021/08/30 05:43:26;;;;;;;20.85;14.52;;;15.00;99.90;;;;;;5037848;28;20017;-48
2021/08/30 05:45:51;;;;;;;20.40;14.50;;;15.00;99.90;;;;;;5035965;28;20017;-48
2021/08/30 05:48:17;;;;;;;15.27;12.32;;;15.00;99.90;;;;;;5040156;28;20048;-46
2021/08/30 05:50:43;;;;;;;16.63;14.18;;;15.10;99.90;;;;;;5039999;28;20021;-47
2021/08/30 05:53:08;;;;;;;15.38;13.73;;;15.10;99.90;;;;;;5038089;28;20529;-46
2021/08/30 05:55:34;;;;;;;19.50;15.30;;;15.10;99.90;;;;;;5039450;28;20021;-50
2021/08/30 05:57:59;;;;;;;18.48;14.27;;;15.20;99.90;;;;;;5038968;28;20026;-46
2021/08/30 06:00:25;;;;;;;17.10;14.95;;;15.20;99.90;;;;;;5039926;28;20080;-48
2021/08/30 06:02:51;;;;;;;18.52;13.82;;;15.30;99.90;;;;;;5037448;28;20017;-46
2021/08/30 06:05:16;;;;;;;16.13;13.68;;;15.30;99.90;;;;;;5038804;28;20028;-49
2021/08/30 06:07:42;;;;;;;18.92;14.27;;;15.30;99.90;;;;;;5039598;28;20021;-51
2021/08/30 06:10:09;;;;;;;17.25;12.95;;;15.40;99.90;;;;;;5038688;28;20014;-49
2021/08/30 06:12:35;;;;;;;14.75;12.05;;;15.50;99.90;;;;;;5039588;28;20108;-51
2021/08/30 06:15:02;;;;;;;16.92;13.20;;;15.50;99.90;;;;;;5039183;28;20018;-46
2021/08/30 06:17:28;;;;;;;16.92;13.18;;;15.50;99.90;;;;;;5039681;28;20021;-48
2021/08/30 06:19:54;;;;;;;14.45;12.27;;;15.50;99.90;;;;;;5037474;28;20031;-50
2021/08/30 06:22:19;;;;;;;17.98;12.50;;;15.50;99.90;;;;;;5039433;28;20025;-46
2021/08/30 06:24:47;;;;;;;16.23;12.38;;;15.60;99.90;;;;;;5039599;28;20017;-47
2021/08/30 06:27:14;;;;;;;16.88;12.73;;;15.50;99.90;;;;;;5036732;28;20017;-47
2021/08/30 06:29:40;;;;;;;15.68;12.43;;;15.60;99.90;;;;;;5036577;28;20029;-47
2021/08/30 06:32:06;;;;;;;16.48;12.57;;;15.60;99.90;;;;;;5038706;28;20018;-46
2021/08/30 06:34:32;;;;;;;16.67;12.45;;;15.70;99.90;;;;;;5039155;28;20487;-48
2021/08/30 06:36:57;;;;;;;14.40;12.02;;;15.80;99.90;;;;;;5035696;28;20083;-50
2021/08/30 06:39:23;;;;;;;14.20;12.18;;;15.80;99.90;;;;;;5039891;28;20379;-50
2021/08/30 06:41:48;;;;;;;13.27;11.88;;;15.90;99.90;;;;;;5039753;28;20021;-49
2021/08/30 06:44:14;;;;;;;17.45;11.27;;;15.90;99.90;;;;;;5035877;28;20033;-46
2021/08/30 06:46:40;;;;;;;15.57;11.80;;;16.00;99.90;;;;;;5038550;28;20081;-47
2021/08/30 06:49:05;;;;;;;13.50;10.85;;;16.10;99.90;;;;;;5036820;28;20024;-46
2021/08/30 06:51:31;;;;;;;11.90;10.50;;;16.20;99.90;;;;;;5044060;28;20032;-47
2021/08/30 06:53:56;;;;;;;16.08;10.75;;;16.30;99.90;;;;;;5046137;28;20107;-48
2021/08/30 06:56:22;;;;;;;12.68;10.73;;;16.40;99.90;;;;;;5041533;28;20077;-48
2021/08/30 06:58:48;;;;;;;13.50;10.95;;;16.50;99.90;;;;;;5049091;28;20159;-49
2021/08/30 07:01:14;;;;;;;11.00;9.82;;;16.50;99.90;;;;;;5048105;28;20060;-48
2021/08/30 07:03:39;;;;;;;12.30;9.80;;;16.60;99.90;;;;;;5045882;28;20022;-48
2021/08/30 07:06:05;;;;;;;11.85;9.23;;;16.60;99.90;;;;;;5044709;28;20418;-48
2021/08/30 07:08:31;;;;;;;11.20;9.77;;;16.60;99.90;;;;;;5042596;28;20757;-47
2021/08/30 07:10:57;;;;;;;11.07;8.57;;;16.60;99.90;;;;;;5042816;28;20391;-47
2021/08/30 07:13:22;;;;;;;13.07;9.05;;;16.60;99.90;;;;;;5041428;28;20013;-49
2021/08/30 07:15:48;;;;;;;10.13;8.27;;;16.60;99.90;;;;;;5042846;28;20060;-46
2021/08/30 07:18:14;;;;;;;12.93;8.52;;;16.60;99.90;;;;;;5039948;28;20033;-46
2021/08/30 07:20:41;;;;;;;9.43;8.40;;;16.60;99.90;;;;;;5041138;28;20590;-48
2021/08/30 07:23:07;;;;;;;9.38;8.48;;;16.60;99.90;;;;;;5040635;28;20075;-47
2021/08/30 07:25:33;;;;;;;10.93;8.75;;;16.60;99.90;;;;;;5042341;28;20092;-47
2021/08/30 07:27:59;;;;;;;10.63;8.35;;;16.70;99.90;;;;;;5036940;28;20523;-47
2021/08/30 07:30:24;;;;;;;10.35;7.20;;;16.70;99.90;;;;;;5042741;28;20107;-48
2021/08/30 07:32:50;;;;;;;13.30;8.05;;;16.80;99.90;;;;;;5040296;28;20053;-47
2021/08/30 07:35:16;;;;;;;8.50;7.70;;;16.80;99.90;;;;;;5038855;28;20031;-49
2021/08/30 07:37:41;;;;;;;8.65;7.38;;;16.90;99.90;;;;;;5042554;28;20063;-47
2021/08/30 07:40:08;;;;;;;8.73;7.20;;;16.90;99.90;;;;;;5040421;28;20035;-47
2021/08/30 07:42:33;;;;;;;8.35;7.50;;;17.00;99.90;;;;;;5038384;28;20092;-47
2021/08/30 07:44:59;;;;;;;7.28;6.57;;;17.10;99.90;;;;;;5039250;28;20109;-50
2021/08/30 07:47:25;;;;;;;8.77;6.97;;;17.30;99.90;;;;;;5044823;28;20025;-46
2021/08/30 07:49:51;;;;;;;7.22;6.50;;;17.60;99.90;;;;;;5037632;28;20017;-47
2021/08/30 07:52:20;;;;;;;8.98;6.40;;;17.70;99.90;;;;;;5045699;28;20025;-47
2021/08/30 07:54:45;;;;;;;7.55;6.75;;;17.70;99.90;;;;;;5038016;28;20025;-49
2021/08/30 07:57:11;;;;;;;10.00;7.22;;;17.70;99.90;;;;;;5046209;28;20078;-46
2021/08/30 07:59:36;;;;;;;9.23;6.45;;;17.70;99.90;;;;;;5038272;28;20022;-50
2021/08/30 08:02:02;;;;;;;10.40;6.97;;;17.70;99.90;;;;;;5039493;28;20022;-48
2021/08/30 08:04:28;;;;;;;6.70;6.05;;;17.90;99.90;;;;;;5042670;28;20097;-48
2021/08/30 08:06:53;;;;;;;6.90;6.20;;;18.10;99.90;;;;;;5038891;28;20017;-49
2021/08/30 08:09:20;;;;;;;9.50;6.85;;;18.30;99.90;;;;;;5045376;28;20537;-49
2021/08/30 08:11:46;;;;;;;8.93;6.13;;;18.50;99.90;;;;;;5038200;28;20496;-51
2021/08/30 08:14:12;;;;;;;7.65;6.18;;;18.60;99.90;;;;;;5046217;28;20510;-51
2021/08/30 08:16:37;;;;;;;10.70;5.70;;;18.50;99.90;;;;;;5038646;28;20019;-47
2021/08/30 08:19:03;;;;;;;6.38;5.25;;;18.40;99.90;;;;;;5039648;28;20021;-48
2021/08/30 08:21:29;;;;;;;6.30;5.30;;;18.40;99.90;;;;;;5045949;28;20029;-48
2021/08/30 08:23:54;;;;;;;9.00;5.53;;;18.30;99.90;;;;;;5037774;28;20022;-48
2021/08/30 08:26:20;;;;;;;8.35;5.50;;;18.20;99.90;;;;;;5034156;28;20488;-48
2021/08/30 08:28:45;;;;;;;5.68;4.68;;;18.20;99.90;;;;;;5035078;28;20025;-49
2021/08/30 08:31:11;;;;;;;8.40;5.18;;;18.00;99.90;;;;;;5042859;28;20021;-48
2021/08/30 08:33:37;;;;;;;5.90;5.30;;;18.10;99.90;;;;;;5040643;28;20089;-50
2021/08/30 08:36:02;;;;;;;8.20;5.53;;;18.10;99.90;;;;;;5033464;28;20104;-46
2021/08/30 08:38:28;;;;;;;6.25;5.25;;;18.20;99.90;;;;;;5039561;28;20025;-46
2021/08/30 08:40:54;;;;;;;7.55;5.97;;;18.40;99.90;;;;;;5037288;28;20025;-47
2021/08/30 08:43:21;;;;;;;6.18;5.57;;;18.40;99.90;;;;;;5039750;28;20032;-47
2021/08/30 08:45:48;;;;;;;9.10;5.63;;;18.30;99.90;;;;;;5039860;28;20013;-46
2021/08/30 08:48:16;;;;;;;5.57;4.85;;;18.30;99.90;;;;;;5039995;28;20404;-48
2021/08/30 08:50:41;;;;;;;6.05;5.45;;;18.30;99.90;;;;;;5041465;28;20510;-49
2021/08/30 08:53:10;;;;;;;10.57;4.93;;;18.50;99.90;;;;;;5039752;28;20022;-51
2021/08/30 08:55:37;;;;;;;11.65;6.43;;;18.60;99.90;;;;;;5040501;28;20218;-49
2021/08/30 08:58:13;;;;;;;7.82;4.95;;;18.70;99.90;;;;;;5039948;28;20041;-46
2021/08/30 09:00:42;;;;;;;7.15;4.88;;;18.70;99.90;;;;;;5040753;28;20033;-49
2021/08/30 09:03:16;;;;;;;7.70;5.70;;;18.60;99.90;;;;;;5027272;28;20025;-48
2021/08/30 09:05:41;;;;;;;7.38;5.18;;;18.60;99.90;;;;;;5039466;28;20017;-48
2021/08/30 09:08:24;;;;;;;6.35;5.38;;;18.50;99.90;;;;;;5039562;28;20032;-50
2021/08/30 09:10:51;;;;;;;6.10;4.75;;;18.30;99.90;;;;;;5031390;28;20017;-49
2021/08/30 09:13:24;;;;;;;5.82;5.22;;;18.20;99.90;;;;;;5039637;28;20021;-49
2021/08/30 09:15:50;;;;;;;4.88;4.35;;;18.20;99.90;;;;;;5040831;28;20064;-50
2021/08/30 09:18:16;;;;;;;5.35;4.85;;;18.20;99.90;;;;;;5033120;28;20060;-52
2021/08/30 09:20:41;;;;;;;10.25;5.22;;;18.10;99.90;;;;;;5038085;28;20024;-49
2021/08/30 09:23:15;;;;;;;6.88;4.40;;;18.10;99.90;;;;;;5040786;28;20027;-49
2021/08/30 09:25:42;;;;;;;7.32;4.85;;;18.10;99.90;;;;;;5036325;28;20024;-51
2021/08/30 09:28:08;;;;;;;5.82;5.18;;;18.00;99.90;;;;;;5034783;28;20387;-50
2021/08/30 09:30:33;;;;;;;8.40;4.72;;;18.00;99.90;;;;;;5040002;28;20020;-47
2021/08/30 09:33:00;;;;;;;7.72;5.68;;;18.00;99.90;;;;;;5038190;28;20035;-54
2021/08/30 09:35:26;;;;;;;5.82;4.90;;;18.00;99.90;;;;;;5038779;28;20017;-48
2021/08/30 09:37:52;;;;;;;9.80;5.47;;;18.00;99.90;;;;;;5042023;28;20075;-51
2021/08/30 09:40:22;;;;;;;5.78;5.28;;;18.00;99.90;;;;;;5036715;28;20045;-50
2021/08/30 09:42:54;;;;;;;5.40;4.90;;;18.00;99.90;;;;;;5037128;28;20045;-51
2021/08/30 09:45:21;;;;;;;5.32;4.80;;;18.00;99.90;;;;;;5039944;28;20497;-50
2021/08/30 09:47:58;;;;;;;6.55;5.18;;;18.00;99.90;;;;;;5038622;28;20030;-51
2021/08/30 09:50:34;;;;;;;6.57;5.10;;;18.00;99.90;;;;;;5026104;28;20017;-50
2021/08/30 09:53:02;;;;;;;6.10;5.13;;;18.00;99.90;;;;;;5038872;28;20025;-49
2021/08/30 09:55:29;;;;;;;7.22;4.70;;;18.00;99.90;;;;;;5039845;28;20056;-51
2021/08/30 09:57:56;;;;;;;7.75;5.28;;;18.00;99.90;;;;;;5039449;28;20037;-48
2021/08/30 10:00:22;;;;;;;5.22;4.72;;;17.90;99.90;;;;;;5027346;28;20013;-53
2021/08/30 10:02:54;;;;;;;9.73;5.57;;;17.80;99.90;;;;;;5037492;28;20025;-49
2021/08/30 10:05:21;;;;;;;5.93;5.32;;;17.80;99.90;;;;;;5039722;28;20025;-52
2021/08/30 10:07:48;;;;;;;6.07;5.40;;;17.70;99.90;;;;;;5039623;28;20143;-52
2021/08/30 10:10:15;;;;;;;7.00;5.25;;;17.60;99.90;;;;;;5038265;28;20560;-52
2021/08/30 10:12:42;;;;;;;6.55;4.85;;;17.60;99.90;;;;;;5040039;28;20408;-50
2021/08/30 10:15:09;;;;;;;6.20;4.93;;;17.50;99.90;;;;;;5045054;28;20061;-50
2021/08/30 10:17:38;;;;;;;7.03;5.38;;;17.50;99.90;;;;;;5034254;28;20369;-47
2021/08/30 10:20:04;;;;;;;8.68;5.93;;;17.40;99.90;;;;;;5035767;28;20018;-52
2021/08/30 10:22:30;;;;;;;7.97;4.82;;;17.40;99.90;;;;;;5038805;28;20021;-50
2021/08/30 10:24:56;;;;;;;5.97;5.35;;;17.40;99.90;;;;;;5029402;28;20044;-51
2021/08/30 10:27:38;;;;;;;6.90;5.90;;;17.40;99.90;;;;;;5041242;28;20013;-52
2021/08/30 10:30:11;;;;;;;5.80;4.93;;;17.60;99.90;;;;;;5030144;28;20067;-48
2021/08/30 10:32:43;;;;;;;7.13;5.47;;;17.60;99.90;;;;;;5045152;28;20028;-49
2021/08/30 10:35:30;;;;;;;7.50;5.88;;;17.60;99.90;;;;;;5048261;28;20025;-50
2021/08/30 10:37:58;;;;;;;8.30;6.30;;;17.70;99.90;;;;;;5042593;28;20466;-52
2021/08/30 10:40:31;;;;;;;7.90;6.05;;;17.80;99.90;;;;;;5038178;28;20021;-50
2021/08/30 10:43:14;;;;;;;6.72;4.95;;;17.90;99.90;;;;;;5040054;28;20013;-51
2021/08/30 10:45:56;;;;;;;6.28;5.68;;;17.90;99.90;;;;;;5042951;28;20048;-47
2021/08/30 10:48:32;;;;;;;6.47;5.35;;;17.90;99.90;;;;;;5031015;28;20056;-48
2021/08/30 10:50:59;;;;;;;7.47;6.50;;;18.00;99.90;;;;;;5040650;28;20029;-48
2021/08/30 10:53:25;;;;;;;6.32;5.32;;;18.00;99.90;;;;;;5043292;28;20107;-48
2021/08/30 10:55:56;;;;;;;7.35;5.60;;;18.00;99.90;;;;;;5040957;28;20074;-50
2021/08/30 10:58:26;;;;;;;7.13;5.63;;;18.00;99.90;;;;;;5030420;28;20487;-50
2021/08/30 11:00:53;;;;;;;6.40;5.80;;;18.20;99.90;;;;;;5042113;28;20074;-49
2021/08/30 11:03:31;;;;;;;5.78;5.18;;;18.40;99.90;;;;;;5039034;28;20025;-52
2021/08/30 11:06:10;;;;;;;7.82;5.80;;;18.60;99.90;;;;;;5042112;28;20074;-49
2021/08/30 11:08:40;;;;;;;8.45;6.38;;;18.60;99.90;;;;;;5035372;28;20159;-51
2021/08/30 11:11:18;;;;;;;6.35;5.30;;;18.60;99.90;;;;;;5041746;28;20021;-52
2021/08/30 11:14:06;;;;;;;7.82;5.85;;;18.60;99.90;;;;;;5039933;28;20091;-48
2021/08/30 11:16:34;;;;;;;13.60;7.00;;;18.70;99.90;;;;;;5037596;28;20372;-48
2021/08/30 11:19:01;;;;;;;7.78;5.68;;;18.70;99.90;;;;;;5039864;28;20026;-49
2021/08/30 11:21:57;;;;;;;10.10;6.38;;;18.70;99.90;;;;;;5043656;28;20076;-47
2021/08/30 11:24:33;;;;;;;8.82;6.15;;;18.70;99.90;;;;;;5029246;28;20122;-49
2021/08/30 11:27:07;;;;;;;9.93;5.03;;;18.70;99.90;;;;;;5040507;28;20017;-52
2021/08/30 11:29:38;;;;;;;7.05;5.60;;;18.60;99.90;;;;;;5038191;28;20434;-48
2021/08/30 11:32:04;;;;;;;8.02;5.32;;;18.50;99.90;;;;;;5040034;28;20164;-49
2021/08/30 11:34:32;;;;;;;9.88;5.65;;;18.40;99.90;;;;;;5042520;28;20449;-49
2021/08/30 11:37:01;;;;;;;6.05;5.45;;;18.30;99.90;;;;;;5038181;28;20036;-50
2021/08/30 11:39:29;;;;;;;5.93;5.32;;;18.30;99.90;;;;;;5042916;28;20113;-51
2021/08/30 11:42:00;;;;;;;8.38;5.90;;;18.20;99.90;;;;;;5043531;28;20021;-51
2021/08/30 11:44:29;;;;;;;5.88;5.28;;;18.20;99.90;;;;;;5036147;28;20071;-52
2021/08/30 11:46:56;;;;;;;6.53;5.47;;;18.10;99.90;;;;;;5045204;28;20024;-49
2021/08/30 11:49:28;;;;;;;7.30;6.00;;;18.00;99.90;;;;;;5035477;28;20109;-53
2021/08/30 11:51:57;;;;;;;8.25;5.53;;;17.90;99.90;;;;;;5045945;28;20025;-50
2021/08/30 11:54:31;;;;;;;6.50;5.78;;;17.90;99.90;;;;;;5034380;28;20021;-54
2021/08/30 11:57:00;;;;;;;8.65;6.22;;;17.90;99.90;;;;;;5046760;28;20643;-49
2021/08/30 11:59:33;;;;;;;6.20;5.55;;;17.90;99.90;;;;;;5038782;28;20480;-49
2021/08/30 12:02:00;;;;;;;6.85;5.78;;;17.90;99.90;;;;;;5039167;28;20014;-50
2021/08/30 12:04:34;;;;;;;6.30;5.03;;;18.00;99.90;;;;;;5043570;28;20523;-51
2021/08/30 12:07:03;;;;;;;7.88;5.22;;;17.90;99.90;;;;;;5039300;28;20527;-50
2021/08/30 12:09:50;;;;;;;9.90;6.40;;;17.90;99.90;;;;;;5042411;28;20022;-49
2021/08/30 12:12:29;;;;;;;6.32;5.70;;;17.90;99.90;;;;;;5040550;28;20040;-51
2021/08/30 12:15:05;;;;;;;6.72;5.63;;;17.90;99.90;;;;;;5041106;28;20399;-47
2021/08/30 12:17:35;;;;;;;11.13;6.53;;;17.90;99.90;;;;;;5030196;28;20079;-48
2021/08/30 12:20:04;;;;;;;7.43;6.80;;;17.90;99.90;;;;;;5039806;28;20051;-52
2021/08/30 12:22:33;;;;;;;13.80;6.55;;;17.90;99.90;;;;;;5042940;28;20021;-53
2021/08/30 12:25:03;;;;;;;7.90;6.20;;;17.90;99.90;;;;;;5040228;28;20589;-51
2021/08/30 12:27:41;;;;;;;6.32;5.45;;;17.90;99.90;;;;;;5030503;28;20027;-52
2021/08/30 12:30:08;;;;;;;7.55;6.75;;;17.90;99.90;;;;;;5040625;28;20021;-49
2021/08/30 12:32:54;;;;;;;6.80;6.03;;;17.90;99.90;;;;;;5034640;28;20694;-47
2021/08/30 12:35:24;;;;;;;8.50;5.53;;;17.90;99.90;;;;;;5036111;28;20029;-49
2021/08/30 12:37:52;;;;;;;6.63;5.85;;;18.00;99.90;;;;;;5031494;28;20033;-46
2021/08/30 12:40:18;;;;;;;10.60;6.95;;;18.00;99.90;;;;;;5041437;28;20040;-50
2021/08/30 12:42:44;;;;;;;6.50;5.88;;;18.10;99.90;;;;;;5037201;28;20480;-49